Pagina principale
METAR-TAF:

METAR-TAF

Aeroporti :

Vestmannaeyjar, Islanda

latitudine: 63-24N, longitudine: 020-17W, altezza: 118 m

Osservazione

Il bollettino è stato emesso 9 ore e 10 minuti fa, alle 18:00 UTC
Vento 19 kt da nord/nord-est con raffiche fino a 31 kt, variando fra nord/nord-ovest e nord-est
Temperature -2°C
Umidità 46%
Pressione 1015 hPa
Visibilità 10 km o più
Poco nuvoloso ad un'altezza di 4000 ft
foschia,

METAR: BIVM 011800Z 02019G31KT 340V050 9999 HZ FEW040 M02/M12 Q1015

Ora: 03:10 (03:10 UTC)

Previsione

Il bollettino è stato emesso 11 ore e 6 minuti fa, alle 16:04 UTC
Previsione valida dal 01 alle 17 UTC al 01 alle 19 UTC
Vento 20 kt da nord
Visibilità 10 km o più
nessuna nube inferiore a 1500 m e nessun cumulonembo
Evoluzione graduale
dal 01 alle 17 UTC al 01 alle 19 UTC
Vento 23 kt da nord con raffiche fino a 35 kt

TAF: BIVM 011604Z 0117/0119 35020KT CAVOK BECMG 0117/0119 35023G35KT

Osservazioni e previsioni meteorologiche di più di 4000 aeroporti (messaggi METAR e TAF).

Le stazioni disponibili sono rappresentate dai dischi gialli e rossi sulla carta.

Puntare il mouse per vedere il nome della stazione.

Clicca sopra per visualizzare le osservazioni e previsioni meteorologiche.

Per cambiare la mappa : fare clic sui pulsanti verdi con una croce nera per ingrandire, il pulsante verde con un trattino per diminuire, o sulla freccia verde per le mappe adiacenti.


METAR-TAF: